Time;durP1;ratioP1;P1;durP2;ratioP2;P2;SDS_P1;SDS_P2;PMS_P1;PMS_P2;Temp;Humidity;BMP_temperature;BMP_pressure;BME280_temperature;BME280_humidity;BME280_pressure;Samples;Min_cycle;Max_cycle;Signal;HPM_P1;HPM_P2
2024/01/09 00:00:15;;;;;;;6.10;3.05;;;;;;;4.05;36.80;102931.63;5052675;28;20029;-68
2024/01/09 00:02:40;;;;;;;4.83;2.90;;;;;;;4.05;36.82;102926.31;5054664;28;20029;-68
2024/01/09 00:08:08;;;;;;;2.27;1.73;;;;;;;4.06;37.36;102928.06;5054135;28;20528;-68
2024/01/09 00:10:53;;;;;;;6.18;3.15;;;;;;;4.06;36.94;102930.72;5055064;28;20040;-68
2024/01/09 00:16:39;;;;;;;7.20;2.73;;;;;;;4.02;38.12;102926.38;5055364;28;20043;-69
2024/01/09 00:27:54;;;;;;;4.40;2.60;;;;;;;4.01;36.34;102932.63;5052868;28;20091;-69
2024/01/09 00:30:19;;;;;;;5.27;2.87;;;;;;;4.02;36.54;102934.34;5052895;28;20029;-68
2024/01/09 00:32:47;;;;;;;6.23;2.77;;;;;;;4.01;37.42;102940.56;5053084;28;20037;-68
2024/01/09 00:35:14;;;;;;;7.55;4.05;;;;;;;4.01;37.88;102934.38;5052888;28;20028;-67
2024/01/09 00:37:39;;;;;;;6.75;3.22;;;;;;;4.01;37.03;102934.38;5035058;28;20037;-69
2024/01/09 00:40:06;;;;;;;5.83;2.87;;;;;;;4.01;37.29;102935.28;5052809;28;20036;-68
2024/01/09 00:42:31;;;;;;;6.43;2.40;;;;;;;4.03;37.26;102932.56;5052711;28;20119;-68
2024/01/09 00:45:00;;;;;;;4.70;2.30;;;;;;;4.02;38.19;102941.44;5052816;28;20584;-68
2024/01/09 00:47:26;;;;;;;10.67;3.40;;;;;;;4.00;37.93;102930.88;5052801;28;20025;-68
2024/01/09 00:49:51;;;;;;;6.87;2.57;;;;;;;4.01;36.29;102932.63;5052946;28;20032;-68
2024/01/09 00:52:16;;;;;;;5.22;2.55;;;;;;;4.02;37.30;102931.69;5053072;28;20025;-68
2024/01/09 00:54:43;;;;;;;4.80;2.70;;;;;;;3.99;37.91;102931.75;5052680;28;20029;-68
2024/01/09 00:57:08;;;;;;;5.77;2.47;;;;;;;4.03;37.08;102943.16;5051583;28;20524;-68
2024/01/09 00:59:34;;;;;;;7.57;2.60;;;;;;;4.03;36.69;102946.69;5052102;28;20033;-68
2024/01/09 01:01:59;;;;;;;6.57;3.33;;;;;;;4.05;37.33;102941.34;5051233;28;20095;-68
2024/01/09 01:04:24;;;;;;;6.77;2.53;;;;;;;4.02;37.92;102939.66;5052535;28;20041;-68
2024/01/09 01:06:50;;;;;;;5.82;3.15;;;;;;;4.01;37.49;102937.91;5052537;28;20025;-68
2024/01/09 01:09:15;;;;;;;8.57;2.70;;;;;;;4.00;37.30;102943.25;5052545;28;20037;-68
2024/01/09 01:11:40;;;;;;;6.13;2.67;;;;;;;4.00;37.78;102932.63;5052922;28;20051;-68
2024/01/09 01:14:06;;;;;;;9.13;3.73;;;;;;;3.97;37.33;102935.34;5052602;28;20029;-68
2024/01/09 01:16:31;;;;;;;6.73;2.70;;;;;;;3.97;38.09;102933.59;5051133;28;20032;-68
2024/01/09 01:18:57;;;;;;;7.63;3.10;;;;;;;3.95;37.36;102940.72;5051070;28;20029;-68
2024/01/09 01:21:22;;;;;;;7.00;3.10;;;;;;;3.96;38.19;102930.97;5051366;28;20033;-68
2024/01/09 01:23:48;;;;;;;6.77;2.53;;;;;;;3.96;38.08;102939.78;5050747;28;20440;-68
2024/01/09 01:26:13;;;;;;;5.90;2.80;;;;;;;3.97;38.44;102930.94;5052591;28;20036;-68
2024/01/09 01:28:40;;;;;;;9.90;3.70;;;;;;;3.96;36.66;102931.81;5052363;28;20037;-68
2024/01/09 01:31:05;;;;;;;7.40;3.13;;;;;;;3.96;36.56;102936.28;5050878;28;20029;-69
2024/01/09 01:33:30;;;;;;;7.90;3.22;;;;;;;3.94;37.07;102933.66;5052078;28;20037;-68
2024/01/09 01:35:55;;;;;;;6.77;3.40;;;;;;;3.96;38.04;102938.94;5055061;28;20075;-68
2024/01/09 01:38:21;;;;;;;6.63;3.07;;;;;;;3.93;37.36;102937.22;5055442;28;20043;-68
2024/01/09 01:40:46;;;;;;;5.90;3.30;;;;;;;3.96;36.97;102945.09;5055615;28;20052;-69
2024/01/09 01:43:12;;;;;;;7.13;3.00;;;;;;;3.94;37.70;102938.94;5055928;28;20455;-68
2024/01/09 01:45:37;;;;;;;4.63;2.63;;;;;;;3.91;36.70;102938.13;5054438;28;20063;-68
2024/01/09 01:48:04;;;;;;;5.87;3.50;;;;;;;3.89;36.50;102940.84;5038129;28;20384;-69
2024/01/09 01:50:30;;;;;;;9.57;3.13;;;;;;;3.89;38.13;102942.63;5055867;28;20028;-68
2024/01/09 01:52:56;;;;;;;7.33;2.40;;;;;;;3.86;37.13;102942.69;5055951;28;20025;-68
2024/01/09 01:55:24;;;;;;;6.13;2.80;;;;;;;3.84;36.46;102936.56;5054317;28;20028;-68
2024/01/09 01:57:52;;;;;;;5.93;2.97;;;;;;;3.83;37.56;102932.16;5055674;28;20163;-68
2024/01/09 02:00:18;;;;;;;7.50;3.07;;;;;;;3.83;37.09;102935.66;5082839;28;20108;-68
2024/01/09 02:02:44;;;;;;;6.47;2.93;;;;;;;3.82;37.91;102941.91;5094427;28;20052;-68
2024/01/09 02:05:11;;;;;;;5.65;2.88;;;;;;;3.85;37.07;102949.75;5095462;28;20027;-68
2024/01/09 02:07:37;;;;;;;6.63;2.73;;;;;;;3.85;37.55;102941.81;5096294;28;20016;-68
2024/01/09 02:10:03;;;;;;;10.63;3.35;;;;;;;3.84;37.18;102937.44;5094497;28;20047;-69
2024/01/09 02:12:29;;;;;;;5.85;2.90;;;;;;;3.80;37.74;102933.09;5094491;28;20016;-67
2024/01/09 02:14:54;;;;;;;8.93;3.37;;;;;;;3.85;36.54;102930.34;5094212;28;20502;-68
2024/01/09 02:17:19;;;;;;;6.53;3.37;;;;;;;3.84;37.85;102934.78;5096205;28;20019;-68
2024/01/09 02:19:45;;;;;;;6.00;2.85;;;;;;;3.83;36.50;102935.66;5096467;28;20479;-68
2024/01/09 02:22:10;;;;;;;6.38;3.10;;;;;;;3.82;36.67;102928.66;5095408;28;20059;-68
2024/01/09 02:24:35;;;;;;;7.33;2.80;;;;;;;3.84;37.86;102931.25;5096343;28;20074;-68
2024/01/09 02:27:12;;;;;;;8.97;3.07;;;;;;;3.82;37.49;102927.78;5096194;28;20491;-69
2024/01/09 02:29:44;;;;;;;5.85;2.72;;;;;;;3.81;36.90;102932.19;5095139;28;20032;-68
2024/01/09 02:32:10;;;;;;;6.65;2.92;;;;;;;3.81;36.63;102931.31;5076918;28;20103;-68
2024/01/09 02:34:36;;;;;;;9.20;3.17;;;;;;;3.78;36.78;102921.66;5093704;28;20128;-68
2024/01/09 02:37:02;;;;;;;6.80;2.83;;;;;;;3.79;37.70;102928.72;5094908;28;20467;-68
2024/01/09 02:39:29;;;;;;;4.30;2.73;;;;;;;3.76;37.24;102918.19;5093479;28;20059;-68
2024/01/09 02:41:54;;;;;;;16.80;3.90;;;;;;;3.79;36.91;102917.25;5094967;28;20419;-68
2024/01/09 02:44:20;;;;;;;6.82;2.60;;;;;;;3.80;38.26;102927.78;5094791;28;20028;-68
2024/01/09 02:46:45;;;;;;;7.50;3.25;;;;;;;3.81;37.99;102923.38;5093716;28;20452;-68
2024/01/09 02:49:11;;;;;;;5.30;2.97;;;;;;;3.81;37.55;102928.66;5094758;28;20039;-68
2024/01/09 02:51:36;;;;;;;6.43;2.83;;;;;;;3.76;37.75;102912.88;5094712;28;20028;-69
2024/01/09 02:54:02;;;;;;;8.07;3.40;;;;;;;3.78;38.46;102912.84;5093255;28;20028;-68
2024/01/09 02:56:28;;;;;;;6.87;3.03;;;;;;;3.78;38.62;102913.72;5094630;28;20433;-68
2024/01/09 02:58:53;;;;;;;3.97;2.87;;;;;;;3.75;37.06;102905.81;5094747;28;20029;-68
2024/01/09 03:01:19;;;;;;;7.60;2.93;;;;;;;3.75;36.67;102910.25;5094613;28;20571;-68
2024/01/09 03:03:44;;;;;;;5.90;2.63;;;;;;;3.74;37.66;102908.53;5094341;28;20513;-68
2024/01/09 03:06:09;;;;;;;4.47;2.38;;;;;;;3.73;38.64;102906.78;5094332;28;20043;-68
2024/01/09 03:08:35;;;;;;;9.23;2.73;;;;;;;3.71;36.51;102909.47;5094293;28;20036;-68
2024/01/09 03:11:00;;;;;;;7.43;3.38;;;;;;;3.71;38.18;102914.78;5093058;28;20050;-68
2024/01/09 03:13:25;;;;;;;3.60;2.47;;;;;;;3.68;37.88;102906.00;5094341;28;20036;-68
2024/01/09 03:15:51;;;;;;;4.47;2.90;;;;;;;3.64;37.57;102902.53;5094140;28;20035;-68
2024/01/09 03:18:16;;;;;;;6.40;3.13;;;;;;;3.67;38.43;102912.19;5094374;28;20511;-68
2024/01/09 03:20:41;;;;;;;7.73;2.63;;;;;;;3.65;37.36;102919.31;5094186;28;20495;-68
2024/01/09 03:23:07;;;;;;;5.47;2.50;;;;;;;3.62;37.83;102912.31;5094176;28;20502;-68
2024/01/09 03:25:32;;;;;;;4.07;1.95;;;;;;;3.61;36.63;102907.91;5093719;28;20399;-69
2024/01/09 03:27:57;;;;;;;6.63;3.20;;;;;;;3.62;38.82;102920.25;5092482;28;20055;-68
2024/01/09 03:30:23;;;;;;;3.77;2.30;;;;;;;3.63;36.61;102914.03;5094134;28;20029;-68
2024/01/09 03:32:49;;;;;;;5.07;2.60;;;;;;;3.59;37.91;102915.03;5092780;28;20075;-69
2024/01/09 03:35:14;;;;;;;7.10;2.83;;;;;;;3.60;37.84;102930.03;5094070;28;20513;-68
2024/01/09 03:37:40;;;;;;;4.80;2.43;;;;;;;3.60;38.70;102924.75;5093872;28;20511;-68
2024/01/09 03:40:05;;;;;;;5.13;2.30;;;;;;;3.60;36.54;102922.09;5093769;28;20024;-69
2024/01/09 03:42:31;;;;;;;6.73;2.77;;;;;;;3.60;38.40;102926.50;5093685;28;20035;-68
2024/01/09 03:44:56;;;;;;;9.53;4.23;;;;;;;3.54;37.40;102914.25;5093715;28;20521;-68
2024/01/09 03:47:21;;;;;;;6.33;2.60;;;;;;;3.54;37.56;102912.47;5093962;28;20036;-68
2024/01/09 03:49:47;;;;;;;5.43;2.87;;;;;;;3.53;36.84;102921.34;5093612;28;20036;-68
2024/01/09 03:52:12;;;;;;;3.83;2.60;;;;;;;3.50;37.44;102915.22;5092649;28;20024;-68
2024/01/09 03:54:37;;;;;;;8.70;2.77;;;;;;;3.51;38.06;102911.69;5092481;28;20410;-68
2024/01/09 03:57:03;;;;;;;6.67;3.27;;;;;;;3.50;36.84;102905.50;5092484;28;20388;-68
2024/01/09 03:59:28;;;;;;;5.60;2.53;;;;;;;3.49;38.90;102905.53;5093596;28;20113;-68
2024/01/09 04:01:54;;;;;;;6.50;2.50;;;;;;;3.50;37.67;102909.94;5092949;28;20089;-68
2024/01/09 04:04:19;;;;;;;4.70;2.20;;;;;;;3.47;37.24;102899.38;5093580;28;20024;-69
2024/01/09 04:06:44;;;;;;;4.90;2.23;;;;;;;3.47;38.51;102899.38;5093195;28;20052;-68
2024/01/09 04:09:11;;;;;;;8.10;3.17;;;;;;;3.46;36.87;102892.38;5093527;28;20054;-69
2024/01/09 04:11:45;;;;;;;5.93;2.90;;;;;;;3.46;37.93;102895.03;5091969;28;20086;-69
2024/01/09 04:14:11;;;;;;;6.03;2.73;;;;;;;3.47;38.64;102909.97;5093388;28;20039;-68
2024/01/09 04:16:36;;;;;;;5.57;2.60;;;;;;;3.45;37.32;102903.84;5092008;28;20032;-69
2024/01/09 04:19:01;;;;;;;5.43;3.33;;;;;;;3.43;37.63;102898.56;5093383;28;20107;-68
2024/01/09 04:21:27;;;;;;;4.80;2.47;;;;;;;3.43;38.02;102903.03;5093199;28;20032;-68
2024/01/09 04:23:52;;;;;;;15.23;3.03;;;;;;;3.40;38.48;102889.84;5091592;28;20028;-69
2024/01/09 04:26:17;;;;;;;5.37;2.70;;;;;;;3.43;37.48;102901.22;5093275;28;20040;-68
2024/01/09 04:28:43;;;;;;;5.93;2.63;;;;;;;3.43;37.13;102895.09;5093470;28;20127;-69
2024/01/09 04:31:08;;;;;;;5.87;2.37;;;;;;;3.44;37.89;102905.63;5093851;28;20044;-68
2024/01/09 04:33:34;;;;;;;6.50;2.33;;;;;;;3.42;38.15;102902.16;5093575;28;20071;-69
2024/01/09 04:35:59;;;;;;;8.53;3.17;;;;;;;3.42;38.73;102902.16;5093178;28;20039;-69
2024/01/09 04:38:25;;;;;;;4.07;2.10;;;;;;;3.41;38.04;102904.81;5094367;28;20032;-69
2024/01/09 04:40:50;;;;;;;6.17;2.33;;;;;;;3.41;37.86;102896.88;5093308;28;20040;-69
2024/01/09 04:43:15;;;;;;;6.40;2.00;;;;;;;3.41;37.95;102905.69;5094678;28;20055;-69
2024/01/09 04:45:41;;;;;;;6.37;3.53;;;;;;;3.39;37.10;102904.88;5096239;28;20039;-69
2024/01/09 04:48:07;;;;;;;6.13;2.83;;;;;;;3.40;37.69;102908.38;5096501;28;20127;-69
2024/01/09 04:50:32;;;;;;;3.53;2.33;;;;;;;3.43;38.08;102908.31;5096247;28;20081;-69
2024/01/09 04:52:57;;;;;;;4.10;2.40;;;;;;;3.41;38.05;102915.41;5093753;28;20032;-69
2024/01/09 04:55:23;;;;;;;5.50;2.37;;;;;;;3.37;37.06;102909.31;5093098;28;20078;-69
2024/01/09 04:57:48;;;;;;;4.57;2.30;;;;;;;3.39;38.79;102917.22;5093083;28;20119;-69
2024/01/09 05:00:14;;;;;;;4.67;2.03;;;;;;;3.39;37.99;102917.22;5091732;28;20036;-68
2024/01/09 05:02:39;;;;;;;8.03;2.53;;;;;;;3.36;37.31;102906.69;5091585;28;20131;-69
2024/01/09 05:05:05;;;;;;;6.70;2.03;;;;;;;3.35;37.49;102910.25;5092618;28;20133;-69
2024/01/09 05:07:30;;;;;;;7.87;2.47;;;;;;;3.34;37.37;102913.81;5091784;28;20058;-68
2024/01/09 05:09:55;;;;;;;4.93;2.13;;;;;;;3.35;36.60;102915.56;5092873;28;20086;-67
2024/01/09 05:12:21;;;;;;;3.83;2.40;;;;;;;3.34;38.57;102908.50;5095436;28;20399;-68
2024/01/09 05:14:46;;;;;;;3.67;2.43;;;;;;;3.35;36.58;102912.91;5096305;28;20410;-68
2024/01/09 05:17:12;;;;;;;6.10;2.73;;;;;;;3.31;38.23;102913.88;5096323;28;20411;-68
2024/01/09 05:19:37;;;;;;;8.97;2.70;;;;;;;3.29;38.38;102910.38;5096588;28;20055;-69
2024/01/09 05:22:02;;;;;;;4.57;2.07;;;;;;;3.30;37.69;102920.94;5096406;28;20044;-68
2024/01/09 05:24:28;;;;;;;8.70;3.17;;;;;;;3.30;37.85;102920.06;5096493;28;20056;-68
2024/01/09 05:26:53;;;;;;;5.37;2.27;;;;;;;3.28;36.67;102913.94;5096452;28;20089;-68
2024/01/09 05:29:19;;;;;;;5.40;2.57;;;;;;;3.28;37.82;102913.94;5096500;28;20032;-69
2024/01/09 05:31:44;;;;;;;5.80;2.27;;;;;;;3.27;37.37;102914.81;5096407;28;20495;-68
2024/01/09 05:34:10;;;;;;;5.03;2.10;;;;;;;3.25;37.42;102916.63;5096095;28;20032;-69
2024/01/09 05:36:35;;;;;;;2.93;2.07;;;;;;;3.25;37.35;102919.28;5095308;28;20032;-68
2024/01/09 05:39:00;;;;;;;7.47;2.93;;;;;;;3.25;38.01;102914.00;5096291;28;20040;-69
2024/01/09 05:41:26;;;;;;;8.07;2.87;;;;;;;3.26;38.23;102915.75;5096107;28;20044;-68
2024/01/09 05:43:51;;;;;;;4.17;2.47;;;;;;;3.23;37.28;102906.09;5096344;28;20044;-68
2024/01/09 05:46:17;;;;;;;4.10;2.17;;;;;;;3.24;37.08;102909.63;5094404;28;20101;-69
2024/01/09 05:48:43;;;;;;;6.27;2.80;;;;;;;3.20;36.76;102915.88;5094719;28;20055;-69
2024/01/09 05:51:09;;;;;;;6.30;2.57;;;;;;;3.21;38.74;102909.69;5094412;28;20036;-69
2024/01/09 05:53:36;;;;;;;5.30;2.20;;;;;;;3.21;37.36;102909.69;5096007;28;20040;-69
2024/01/09 05:56:01;;;;;;;5.93;2.10;;;;;;;3.15;37.28;102894.78;5094622;28;20047;-68
2024/01/09 05:58:27;;;;;;;5.73;2.63;;;;;;;3.16;38.03;102895.63;5095692;28;20161;-69
2024/01/09 06:00:52;;;;;;;4.73;2.17;;;;;;;3.17;37.88;102905.34;5095512;28;20081;-69
2024/01/09 06:03:17;;;;;;;4.17;2.33;;;;;;;3.11;38.17;102897.50;5095503;28;20040;-69
2024/01/09 06:05:43;;;;;;;4.20;2.40;;;;;;;3.14;37.99;102905.41;5094292;28;20040;-69
2024/01/09 06:08:08;;;;;;;5.37;2.17;;;;;;;3.15;38.65;102907.16;5095579;28;20032;-69
2024/01/09 06:10:33;;;;;;;6.47;2.13;;;;;;;3.14;38.00;102908.03;5095622;28;20551;-68
2024/01/09 06:12:59;;;;;;;6.37;2.33;;;;;;;3.16;36.69;102908.88;5095814;28;20036;-69
2024/01/09 06:15:24;;;;;;;5.40;2.27;;;;;;;3.17;37.36;102910.63;5078833;28;20052;-69
2024/01/09 06:17:49;;;;;;;4.13;2.17;;;;;;;3.16;37.98;102911.53;5054996;28;20037;-69
2024/01/09 06:20:15;;;;;;;6.90;2.50;;;;;;;3.18;37.55;102920.31;5053559;28;20045;-69
2024/01/09 06:22:40;;;;;;;5.93;2.60;;;;;;;3.20;37.11;102919.38;5052743;28;20037;-68
2024/01/09 06:25:05;;;;;;;6.10;2.17;;;;;;;3.18;37.70;102912.38;5054555;28;20140;-69
2024/01/09 06:27:31;;;;;;;4.13;1.93;;;;;;;3.22;37.08;102914.94;5054908;28;20071;-68
2024/01/09 06:29:56;;;;;;;4.93;2.63;;;;;;;3.21;38.52;102918.47;5053625;28;20044;-68
2024/01/09 06:32:22;;;;;;;6.87;2.03;;;;;;;3.21;37.04;102917.63;5054866;28;20504;-67
2024/01/09 06:34:47;;;;;;;8.17;2.43;;;;;;;3.21;37.31;102914.97;5054669;28;20037;-70
2024/01/09 06:37:13;;;;;;;8.27;2.53;;;;;;;3.20;38.63;102907.91;5054822;28;20086;-70
2024/01/09 06:39:38;;;;;;;5.97;2.37;;;;;;;3.19;38.24;102915.00;5054914;28;20404;-70
2024/01/09 06:42:04;;;;;;;3.47;2.20;;;;;;;3.22;37.28;102908.75;5054704;28;20498;-68
2024/01/09 06:44:29;;;;;;;4.20;1.70;;;;;;;3.21;38.64;102912.31;5053320;28;20087;-67
2024/01/09 06:46:54;;;;;;;6.23;2.50;;;;;;;3.19;38.73;102914.09;5054579;28;20106;-67
2024/01/09 06:49:20;;;;;;;7.97;3.23;;;;;;;3.18;38.15;102915.03;5054588;28;20040;-67
2024/01/09 06:51:45;;;;;;;8.83;3.00;;;;;;;3.14;37.71;102916.88;5054527;28;20041;-68
2024/01/09 06:54:11;;;;;;;6.93;2.87;;;;;;;3.15;37.40;102918.63;5054532;28;20052;-68
2024/01/09 06:56:36;;;;;;;6.10;2.27;;;;;;;3.14;37.29;102923.94;5054368;28;20041;-68
2024/01/09 06:59:02;;;;;;;9.30;2.73;;;;;;;3.13;36.63;102924.81;5053305;28;20039;-68
2024/01/09 07:01:27;;;;;;;4.57;2.70;;;;;;;3.11;36.59;102930.16;5052958;28;20412;-67
2024/01/09 07:03:53;;;;;;;5.57;2.40;;;;;;;3.10;37.57;102924.91;5054290;28;20412;-67
2024/01/09 07:06:18;;;;;;;3.60;1.97;;;;;;;3.08;38.75;102927.56;5054234;28;20066;-68
2024/01/09 07:08:43;;;;;;;5.50;3.20;;;;;;;3.03;37.35;102917.97;5054128;28;20041;-68
2024/01/09 07:11:09;;;;;;;7.03;2.67;;;;;;;3.03;38.02;102931.22;5036095;28;20039;-68
2024/01/09 07:13:34;;;;;;;5.67;3.10;;;;;;;2.98;38.42;102926.00;5054132;28;20041;-67
2024/01/09 07:16:00;;;;;;;8.10;2.60;;;;;;;2.97;37.16;102918.97;5054077;28;20083;-67
2024/01/09 07:18:27;;;;;;;8.80;2.90;;;;;;;2.98;38.16;102930.44;5054148;28;20037;-68
2024/01/09 07:20:53;;;;;;;5.33;2.63;;;;;;;3.01;38.43;102940.97;5052833;28;20037;-67
2024/01/09 07:23:18;;;;;;;18.00;2.50;;;;;;;2.97;38.06;102933.97;5052848;28;20067;-67
2024/01/09 07:25:43;;;;;;;6.07;2.40;;;;;;;3.01;36.91;102943.59;5053870;28;20044;-68
2024/01/09 07:28:08;;;;;;;6.43;3.23;;;;;;;2.96;36.73;102925.16;5052646;28;20037;-67
2024/01/09 07:30:34;;;;;;;5.70;2.70;;;;;;;2.97;37.21;102934.84;5053740;28;20063;-67
2024/01/09 07:32:59;;;;;;;6.37;3.07;;;;;;;2.96;36.78;102938.38;5053332;28;20404;-68
2024/01/09 07:35:24;;;;;;;8.03;3.00;;;;;;;2.96;38.56;102943.66;5052336;28;20411;-68
2024/01/09 07:37:50;;;;;;;8.03;2.97;;;;;;;2.93;37.58;102927.88;5053470;28;20460;-68
2024/01/09 07:40:15;;;;;;;4.90;2.83;;;;;;;2.94;36.79;102946.34;5053612;28;20032;-68
2024/01/09 07:42:41;;;;;;;5.50;2.77;;;;;;;2.97;37.88;102949.84;5053729;28;20083;-68
2024/01/09 07:45:11;;;;;;;6.13;2.40;;;;;;;2.98;38.95;102951.59;5052242;28;20094;-68
2024/01/09 07:47:37;;;;;;;8.83;3.57;;;;;;;2.99;37.63;102953.34;5053471;28;20048;-68
2024/01/09 07:50:03;;;;;;;7.83;2.90;;;;;;;2.98;38.56;102951.59;5052029;28;20033;-68
2024/01/09 07:52:28;;;;;;;7.63;3.13;;;;;;;2.99;37.38;102958.66;5053380;28;20037;-67
2024/01/09 07:54:54;;;;;;;7.30;3.13;;;;;;;2.97;38.72;102955.13;5053184;28;20044;-68
2024/01/09 07:57:19;;;;;;;10.47;3.50;;;;;;;2.98;38.49;102959.53;5053231;28;20041;-68
2024/01/09 07:59:45;;;;;;;13.40;3.77;;;;;;;2.96;37.05;102959.56;5053359;28;20411;-68
2024/01/09 08:02:10;;;;;;;7.53;2.90;;;;;;;2.95;37.42;102963.13;5051788;28;20068;-68
2024/01/09 08:04:37;;;;;;;8.37;2.87;;;;;;;2.97;37.76;102965.72;5053063;28;20037;-68
2024/01/09 08:07:03;;;;;;;7.27;3.33;;;;;;;2.97;37.49;102965.72;5052957;28;20561;-68
2024/01/09 08:09:28;;;;;;;9.10;3.37;;;;;;;2.97;38.49;102958.66;5052957;28;20120;-68
2024/01/09 08:11:54;;;;;;;9.20;3.43;;;;;;;3.00;37.82;102957.72;5053000;28;20382;-67
2024/01/09 08:14:19;;;;;;;6.50;3.23;;;;;;;3.02;37.05;102961.22;5051878;28;20033;-67
2024/01/09 08:16:44;;;;;;;4.20;2.77;;;;;;;3.05;37.52;102961.16;5053032;28;20087;-68
2024/01/09 08:19:10;;;;;;;9.00;3.30;;;;;;;3.06;37.36;102961.16;5052867;28;20408;-67
2024/01/09 08:21:36;;;;;;;8.60;3.67;;;;;;;3.09;37.64;102960.22;5052772;28;20033;-67
2024/01/09 08:24:02;;;;;;;7.77;2.93;;;;;;;3.12;38.21;102965.44;5052609;28;20049;-67
2024/01/09 08:26:28;;;;;;;11.70;4.07;;;;;;;3.15;38.13;102975.97;5051779;28;20480;-67
2024/01/09 08:28:53;;;;;;;8.83;2.90;;;;;;;3.16;38.82;102968.00;5052815;28;20029;-68
2024/01/09 08:31:18;;;;;;;10.03;3.60;;;;;;;3.17;38.38;102968.88;5052627;28;20036;-68
2024/01/09 08:33:44;;;;;;;6.97;2.53;;;;;;;3.19;38.74;102973.22;5052763;28;20037;-68
2024/01/09 08:36:09;;;;;;;6.63;3.50;;;;;;;3.24;37.94;102970.53;5052658;28;20172;-68
2024/01/09 08:38:34;;;;;;;7.20;3.13;;;;;;;3.27;38.47;102966.00;5051482;28;20420;-67
2024/01/09 08:41:02;;;;;;;4.37;2.47;;;;;;;3.31;37.62;102970.34;5052642;28;20053;-68
2024/01/09 08:43:27;;;;;;;7.63;3.30;;;;;;;3.29;39.16;102963.34;5052727;28;20075;-68
2024/01/09 08:45:53;;;;;;;10.50;3.23;;;;;;;3.36;37.94;102971.13;5054257;28;20512;-68
2024/01/09 08:48:18;;;;;;;5.77;2.77;;;;;;;3.37;37.98;102974.66;5055917;28;20443;-68
2024/01/09 08:50:44;;;;;;;5.00;2.63;;;;;;;3.41;37.09;102969.25;5057575;28;20055;-67
2024/01/09 08:53:10;;;;;;;7.77;4.00;;;;;;;3.44;37.40;102973.63;5056433;28;20082;-68
2024/01/09 08:55:35;;;;;;;5.17;2.90;;;;;;;3.49;38.29;102979.69;5057601;28;20037;-67
2024/01/09 08:58:00;;;;;;;6.10;2.67;;;;;;;3.51;37.35;102981.44;5055322;28;20519;-68
2024/01/09 09:00:26;;;;;;;6.27;3.47;;;;;;;3.53;37.54;102974.31;5055423;28;20033;-67
2024/01/09 09:02:51;;;;;;;7.20;3.53;;;;;;;3.49;37.38;102964.66;5056937;28;20556;-67
2024/01/09 09:05:17;;;;;;;9.17;3.70;;;;;;;3.62;39.12;102967.97;5056447;28;20564;-67
2024/01/09 09:07:43;;;;;;;7.87;2.90;;;;;;;3.67;39.08;102968.72;5056328;28;20044;-67
2024/01/09 09:10:08;;;;;;;5.60;3.30;;;;;;;3.75;37.08;102977.38;5056329;28;20037;-67
2024/01/09 09:12:34;;;;;;;8.30;3.33;;;;;;;3.84;37.48;102977.19;5056191;28;20041;-68
2024/01/09 09:15:00;;;;;;;8.07;3.70;;;;;;;3.90;37.43;102979.72;5055945;28;20407;-67
2024/01/09 09:17:25;;;;;;;9.50;2.93;;;;;;;3.91;38.32;102976.13;5056177;28;20504;-67
2024/01/09 09:19:50;;;;;;;9.40;3.43;;;;;;;3.93;37.40;102984.94;5056250;28;20035;-67
2024/01/09 09:22:16;;;;;;;8.43;3.83;;;;;;;3.94;37.61;102985.78;5056201;28;20057;-67
2024/01/09 09:24:42;;;;;;;7.32;3.30;;;;;;;3.93;38.68;102979.66;5038283;28;20424;-68
2024/01/09 09:27:07;;;;;;;7.93;2.97;;;;;;;3.95;38.56;102980.47;5056430;28;20110;-68
2024/01/09 09:29:33;;;;;;;10.60;3.30;;;;;;;3.97;38.31;102976.00;5054926;28;20040;-68
2024/01/09 09:31:58;;;;;;;7.07;3.47;;;;;;;4.01;37.84;102975.03;5056303;28;20033;-68
2024/01/09 09:34:24;;;;;;;11.63;3.67;;;;;;;4.06;38.19;102964.31;5056225;28;20516;-67
2024/01/09 09:36:50;;;;;;;5.47;2.88;;;;;;;4.16;37.96;102970.28;5056285;28;20029;-68
2024/01/09 09:39:15;;;;;;;8.30;3.80;;;;;;;4.22;36.81;102971.00;5056879;28;20041;-68
2024/01/09 09:41:43;;;;;;;6.57;2.87;;;;;;;4.30;38.92;102970.84;5056918;28;20112;-68
2024/01/09 09:44:13;;;;;;;9.10;3.53;;;;;;;4.35;38.32;102963.63;5055946;28;20507;-69
2024/01/09 09:46:40;;;;;;;8.43;3.13;;;;;;;4.48;37.29;102971.25;5057373;28;20028;-69
2024/01/09 09:49:06;;;;;;;5.60;3.13;;;;;;;4.64;37.39;102963.78;5058204;28;20033;-69
2024/01/09 09:51:31;;;;;;;12.02;3.38;;;;;;;4.88;37.90;102968.47;5057801;28;20032;-68
2024/01/09 09:53:57;;;;;;;9.18;3.65;;;;;;;5.07;38.42;102967.06;5058776;28;20104;-68
2024/01/09 09:56:24;;;;;;;12.75;3.13;;;;;;;5.28;37.79;102965.59;5057032;28;20035;-68
2024/01/09 09:58:49;;;;;;;14.82;4.43;;;;;;;5.49;37.76;102957.03;5037478;28;20029;-68
2024/01/09 10:01:14;;;;;;;10.07;3.50;;;;;;;5.77;37.46;102967.72;5055388;28;20040;-68
2024/01/09 10:03:54;;;;;;;6.38;3.63;;;;;;;6.06;37.59;102973.03;5055209;28;20025;-68
2024/01/09 10:06:21;;;;;;;5.93;3.20;;;;;;;6.31;36.12;102966.00;5055491;28;20041;-68
2024/01/09 10:08:48;;;;;;;7.85;3.83;;;;;;;6.52;36.53;102971.56;5055395;28;20037;-68
2024/01/09 10:11:14;;;;;;;7.38;3.67;;;;;;;6.71;36.31;102964.69;5054182;28;20040;-68
2024/01/09 10:13:39;;;;;;;7.05;3.20;;;;;;;6.91;37.13;102951.56;5055307;28;20037;-68
2024/01/09 10:16:05;;;;;;;7.55;3.70;;;;;;;7.11;35.96;102949.06;5055286;28;20036;-69
2024/01/09 10:18:31;;;;;;;5.90;2.78;;;;;;;7.29;35.94;102953.72;5055020;28;20409;-68
2024/01/09 10:20:57;;;;;;;7.93;3.22;;;;;;;7.47;36.09;102950.41;5055327;28;20060;-68
2024/01/09 10:23:23;;;;;;;9.70;3.67;;;;;;;7.67;35.87;102944.31;5053996;28;20040;-69
2024/01/09 10:25:48;;;;;;;7.72;3.72;;;;;;;7.86;36.95;102939.13;5054766;28;20041;-69
2024/01/09 10:28:16;;;;;;;11.07;3.58;;;;;;;8.00;35.88;102931.44;5054911;28;20033;-69
2024/01/09 10:30:41;;;;;;;9.65;3.58;;;;;;;8.20;35.78;102921.72;5054881;28;20056;-69
2024/01/09 10:33:11;;;;;;;5.93;2.78;;;;;;;8.36;35.97;102924.66;5054963;28;20467;-69
2024/01/09 10:35:37;;;;;;;8.82;3.75;;;;;;;8.52;36.04;102925.75;5054896;28;20033;-69
2024/01/09 10:38:02;;;;;;;11.23;3.38;;;;;;;8.63;35.46;102927.94;5054641;28;20083;-68
2024/01/09 10:40:28;;;;;;;6.05;3.78;;;;;;;8.76;35.43;102922.03;5054721;28;20037;-69
2024/01/09 10:42:53;;;;;;;10.68;3.50;;;;;;;8.89;35.89;102910.81;5054909;28;20024;-69
2024/01/09 10:45:23;;;;;;;7.28;3.55;;;;;;;9.02;35.52;102918.22;5053272;28;20568;-68
2024/01/09 10:47:52;;;;;;;5.82;3.30;;;;;;;9.14;35.85;102914.13;5054692;28;20142;-69
2024/01/09 10:50:18;;;;;;;6.15;3.30;;;;;;;9.24;35.38;102912.81;5054652;28;20040;-69
2024/01/09 10:52:44;;;;;;;7.45;3.55;;;;;;;9.32;35.35;102916.00;5054609;28;20053;-68
2024/01/09 10:55:09;;;;;;;7.75;3.50;;;;;;;9.38;35.21;102907.66;5053266;28;20052;-69
2024/01/09 10:57:36;;;;;;;7.03;3.45;;;;;;;9.48;34.77;102900.09;5054446;28;20044;-69
2024/01/09 11:00:07;;;;;;;6.93;2.60;;;;;;;9.56;35.14;102901.47;5054458;28;20089;-70
2024/01/09 11:02:36;;;;;;;7.75;3.90;;;;;;;9.59;35.07;102892.44;5053172;28;20033;-69
2024/01/09 11:05:02;;;;;;;6.85;3.25;;;;;;;9.64;35.29;102893.06;5054228;28;20037;-69
2024/01/09 11:07:29;;;;;;;8.13;3.47;;;;;;;9.67;35.15;102891.13;5035878;28;20564;-69
2024/01/09 11:09:55;;;;;;;6.38;3.53;;;;;;;9.72;34.96;102894.44;5052866;28;20139;-69
2024/01/09 11:12:24;;;;;;;5.80;3.17;;;;;;;9.79;34.87;102882.53;5054199;28;20049;-69
2024/01/09 11:14:53;;;;;;;7.93;3.55;;;;;;;9.86;34.61;102886.63;5052746;28;20091;-69
2024/01/09 11:17:20;;;;;;;8.40;3.78;;;;;;;9.92;33.91;102889.00;5052692;28;20055;-69
2024/01/09 11:19:45;;;;;;;6.47;3.08;;;;;;;9.96;34.74;102881.72;5052867;28;20033;-69
2024/01/09 11:22:18;;;;;;;9.98;3.28;;;;;;;10.00;33.96;102879.72;5054062;28;20036;-69
2024/01/09 11:24:47;;;;;;;;;;;;;;;10.03;34.41;102875.09;5054143;28;20094;-69
2024/01/09 11:27:14;;;;;;;4.72;2.78;;;;;;;10.06;34.29;102874.06;5053872;28;19920;-69
2024/01/09 11:29:49;;;;;;;6.28;2.88;;;;;;;10.07;34.75;102870.47;5052531;28;20487;-69
2024/01/09 11:32:15;;;;;;;6.85;3.17;;;;;;;10.09;34.82;102857.88;5052546;28;20040;-69
2024/01/09 11:34:46;;;;;;;7.00;3.45;;;;;;;10.12;34.17;102860.38;5053615;28;20040;-69
2024/01/09 11:37:21;;;;;;;8.50;4.00;;;;;;;10.16;33.79;102852.16;5053720;28;20056;-69
2024/01/09 11:39:46;;;;;;;6.38;3.22;;;;;;;10.20;34.53;102842.16;5053682;28;20095;-69